Flight Track Log - Related Links

Times and Time Zones

All times are in EDT time to prevent confusion due to time zone crossing. See the SAS944 flight status page for this flight to view local times or setup timezone preferences in your user account.

Time Position Orientation Groundspeed Altitude Reporting Facility
EDT Latitude Longitude Course Direction KTS MPH feet Rate Location/Type
Sat 11:37:05 PM 41.9780 -87.9160 272° West 26 30  Level FlightAware ADS-B
Sat 11:37:39 PM 41.9790 -87.9180 304° West 25 29 66 Level FlightAware ADS-B
Sat 11:38:07 PM 41.9800 -87.9190 323° Northwest 31 36 68 Level FlightAware ADS-B
Sat 11:38:19 PM 41.9800 -87.9200 270° West 33 38 69 Level FlightAware ADS-B
Sat 11:38:47 PM 41.9820 -87.9210 340° North 18 21 70 Level FlightAware ADS-B
Sat 11:39:15 PM 41.9840 -87.9230 323° Northwest 21 24 71 Level FlightAware ADS-B
Sat 11:40:45 PM 41.9870 -87.9200 37° Northeast 16 18 73 Level FlightAware ADS-B
Sat 11:41:03 PM 41.9870 -87.9180 90° East 16 18 78 Level FlightAware ADS-B
Sat 11:41:42 PM 41.9870 -87.9150 90° East 28 32 79 Level FlightAware ADS-B
Sat 11:42:12 PM 41.9880 -87.9140 37° Northeast 34 39 82 Level FlightAware ADS-B
Sat 11:42:27 PM 41.9890 -87.9130 37° Northeast 31 36 84 Level FlightAware ADS-B
Sat 11:42:55 PM 41.9900 -87.9110 56° Northeast 15 17 85 Level FlightAware ADS-B
Sat 11:43:23 PM 41.9920 -87.9090 37° Northeast 16 18 87 Level FlightAware ADS-B
Sat 11:43:49 PM 41.9930 -87.9080 37° Northeast 23 26 89 Level FlightAware ADS-B
Sat 11:44:33 PM 41.9940 -87.9080 360° North 26 30 91 Level FlightAware ADS-B
Sat 11:45:01 PM 41.9950 -87.9100 304° West 33 38 95 Level FlightAware ADS-B
Sat 11:45:30 PM 41.9980 -87.9130 323° Northwest 29 33 98 Level FlightAware ADS-B
Sat 11:47:04 PM 41.9970 -87.9110 124° Southeast 16 18 101 Level FlightAware ADS-B
Sat 11:48:46 PM 41.9970 -87.9120 270° West 112 Level FlightAware ADS-B
Sat 11:51:53 PM 41.9980 -87.9120 360° North 17 20 127 Level FlightAware ADS-B
Sat 11:53:49 PM 41.9990 -87.9130 323° Northwest 2 2 170 Level FlightAware ADS-B
Sat 11:54:16 PM 41.9990 -87.9140 270° West 12 14 213 Level FlightAware ADS-B
Sat 11:56:52 PM 42.0010 -87.9160 323° Northwest 20 23 227 Level FlightAware ADS-B
Sun 12:00:23 AM 41.9950 -87.9070 132° Southeast 115 132 360 Level FlightAware ADS-B
Sun 12:00:48 AM 41.9830 -87.8940 141° Southeast 175 201 1,714 Level FlightAware ADS-B
Sun 12:01:19 AM 41.9630 -87.8700 138° Southeast 169 194 1,600 2,634 Climbing FlightAware ADS-B
Sun 12:01:29 AM 41.9610 -87.8590 104° East 168 193 1,800 955 Climbing FlightAware ADS-B
Sun 12:02:03 AM 41.9760 -87.8300 55° Northeast 188 216 2,300 1,258 Climbing FlightAware ADS-B
Sun 12:02:31 AM 41.9960 -87.8130 32° Northeast 178 205 3,100 1,615 Climbing FlightAware ADS-B
Sun 12:02:55 AM 42.0150 -87.8110 North 173 199 3,700 1,463 Climbing FlightAware ADS-B
Sun 12:03:12 AM 42.0300 -87.8110 360° North 174 200 4,100 818 Climbing FlightAware ADS-B
Sun 12:03:39 AM 42.0530 -87.8110 360° North 195 224 4,300 558 Climbing FlightAware ADS-B
Sun 12:03:55 AM 42.0670 -87.8120 357° North 207 238 4,500 682 Climbing FlightAware ADS-B
Sun 12:04:23 AM 42.0950 -87.8130 358° North 236 272 4,800 964 Climbing FlightAware ADS-B
Sun 12:04:51 AM 42.1290 -87.8150 358° North 257 296 5,400 1,412 Climbing FlightAware ADS-B
Sun 12:05:14 AM 42.1570 -87.8160 358° North 268 308 6,000 1,875 Climbing FlightAware ADS-B
Sun 12:05:39 AM 42.1880 -87.8170 359° North 272 313 6,900 2,000 Climbing FlightAware ADS-B
Sun 12:06:08 AM 42.2240 -87.8170 360° North 278 320 7,800 1,950 Climbing FlightAware ADS-B
Sun 12:06:19 AM 42.2370 -87.8180 14° North 277 319 8,200 2,000 Climbing FlightAware ADS-B
Sun 12:06:47 AM 42.2760 -87.8180 360° North 287 330 9,100 2,000 Climbing FlightAware ADS-B
Sun 12:07:13 AM 42.3110 -87.8180 360° North 290 334 10,000 1,355 Climbing FlightAware ADS-B
Sun 12:07:49 AM 42.3560 -87.8180 360° North 314 361 10,500 1,026 Climbing FlightAware ADS-B
Sun 12:08:29 AM 42.4230 -87.8200 359° North 344 396 11,300 1,571 Climbing FlightAware ADS-B
Sun 12:09:13 AM 42.4950 -87.8220 359° North 353 406 12,700 1,816 Climbing FlightAware ADS-B
Sun 12:09:45 AM 42.5470 -87.8110 North 369 425 13,600 1,775 Climbing FlightAware ADS-B
Sun 12:10:24 AM 42.6080 -87.7710 26° Northeast 373 429 14,800 1,658 Climbing FlightAware ADS-B
Sun 12:11:01 AM 42.6660 -87.7350 25° Northeast 384 442 15,700 1,429 Climbing FlightAware ADS-B
Sun 12:13:33 AM 42.8850 -87.5710 29° Northeast 416 479 19,300 1,522 Climbing FlightAware ADS-B
Sun 12:14:22 AM 42.9810 -87.4650 39° Northeast 426 490 20,800 1,733 Climbing FlightAware ADS-B
Sun 12:15:03 AM 43.0470 -87.3940 38° Northeast 431 496 21,900 1,350 Climbing FlightAware ADS-B
Sun 12:15:42 AM 43.1060 -87.3290 39° Northeast 438 504 22,600 1,050 Climbing FlightAware ADS-B
Sun 12:16:23 AM 43.1730 -87.2550 39° Northeast 445 512 23,300 1,047 Climbing FlightAware ADS-B
Sun 12:17:08 AM 43.2450 -87.1750 39° Northeast 453 521 24,100 1,146 Climbing FlightAware ADS-B
Sun 12:17:52 AM 43.3170 -87.0960 39° Northeast 457 526 25,000 1,105 Climbing FlightAware ADS-B
Sun 12:18:24 AM 43.3710 -87.0360 39° Northeast 461 531 25,500 1,000 Climbing FlightAware ADS-B
Sun 12:19:04 AM 43.4360 -86.9630 39° Northeast 465 535 26,200 977 Climbing FlightAware ADS-B
Sun 12:19:50 AM 43.5140 -86.8760 39° Northeast 470 541 26,900 840 Climbing FlightAware ADS-B
Sun 12:20:44 AM 43.6000 -86.7800 39° Northeast 477 549 27,600 796 Climbing FlightAware ADS-B
Sun 12:21:28 AM 43.6660 -86.6710 50° Northeast 502 578 28,200 714 Climbing FlightAware ADS-B
Sun 12:22:08 AM 43.7160 -86.5530 60° Northeast 510 587 28,600 588 Climbing FlightAware ADS-B
Sun 12:22:19 AM 43.7280 -86.5240 60° Northeast 512 589 28,700 711 Climbing FlightAware ADS-B
Sun 12:23:24 AM 43.8050 -86.3400 60° Northeast 520 598 29,500 722 Climbing FlightAware ADS-B
Sun 12:24:07 AM 43.8580 -86.2140 60° Northeast 525 604 30,000 692 Climbing FlightAware ADS-B
Sun 12:24:42 AM 43.8990 -86.1140 60° Northeast 529 609 30,400 635 Climbing FlightAware ADS-B
Sun 12:25:32 AM 43.9600 -85.9670 60° Northeast 535 616 30,900 659 Climbing FlightAware ADS-B
Sun 12:26:13 AM 44.0070 -85.8530 60° Northeast 536 617 31,400 900 Climbing FlightAware ADS-B
Sun 12:26:52 AM 44.0580 -85.7270 61° Northeast 531 611 32,100 1,024 Climbing FlightAware ADS-B
Sun 12:27:35 AM 44.1110 -85.5990 60° Northeast 529 609 32,800 651 Climbing FlightAware ADS-B
Sun 12:28:15 AM 44.1590 -85.4790 61° Northeast 537 618 33,000 158 Climbing FlightAware ADS-B
Sun 12:28:51 AM 44.2040 -85.3680 60° Northeast 547 629 33,000  Level FlightAware ADS-B
Sun 12:29:37 AM 44.2620 -85.2240 61° Northeast 560 644 33,000  Level FlightAware ADS-B
Sun 12:30:14 AM 44.3070 -85.1130 60° Northeast 563 648 33,000  Level FlightAware ADS-B
Sun 12:30:53 AM 44.3570 -84.9870 61° Northeast 564 649 33,000  Level FlightAware ADS-B
Sun 12:31:33 AM 44.4070 -84.8620 61° Northeast 565 650 33,000  Level FlightAware ADS-B
Sun 12:32:14 AM 44.4590 -84.7310 61° Northeast 566 651 33,000  Level FlightAware ADS-B
Sun 12:32:57 AM 44.5150 -84.5880 61° Northeast 567 652 33,000  Level FlightAware ADS-B
Sun 12:33:37 AM 44.5660 -84.4600 61° Northeast 567 652 33,000  Level FlightAware ADS-B
Sun 12:34:21 AM 44.6210 -84.3180 61° Northeast 569 655 33,000  Level FlightAware ADS-B
Sun 12:35:05 AM 44.6770 -84.1740 61° Northeast 571 657 33,000  Level FlightAware ADS-B
Sun 12:35:46 AM 44.7280 -84.0430 61° Northeast 570 656 33,000  Level FlightAware ADS-B
Sun 12:36:25 AM 44.7770 -83.9170 61° Northeast 570 656 33,000  Level FlightAware ADS-B
Sun 12:37:10 AM 44.8330 -83.7690 62° Northeast 570 656 33,000  Level FlightAware ADS-B
Sun 12:37:54 AM 44.8880 -83.6260 61° Northeast 569 655 33,000  Level FlightAware ADS-B
Sun 12:38:34 AM 44.9380 -83.4940 62° Northeast 572 658 33,000  Level FlightAware ADS-B
Sun 12:39:15 AM 44.9870 -83.3640 62° Northeast 575 662 33,000  Level FlightAware ADS-B
Sun 12:39:58 AM 45.0420 -83.2170 62° Northeast 575 662 33,000  Level FlightAware ADS-B
Sun 12:40:38 AM 45.0920 -83.0830 62° Northeast 576 663 33,000  Level FlightAware ADS-B
Sun 12:41:22 AM 45.1470 -82.9370 62° Northeast 576 663 33,000  Level FlightAware ADS-B
Sun 12:42:03 AM 45.1980 -82.7990 62° Northeast 575 662 33,000  Level FlightAware ADS-B
Sun 12:42:42 AM 45.2450 -82.6710 62° Northeast 573 659 33,000 212 Level FlightAware ADS-B
Sun 12:43:28 AM 45.2990 -82.5220 63° Northeast 572 658 33,300 404 Climbing FlightAware ADS-B
Sun 12:44:11 AM 45.3540 -82.3730 62° Northeast 574 661 33,600 500 Climbing FlightAware ADS-B
Sun 12:44:52 AM 45.4030 -82.2370 63° Northeast 575 662 34,000 706 Climbing FlightAware ADS-B
Sun 12:45:36 AM 45.4560 -82.0890 63° Northeast 569 655 34,600 750 Climbing FlightAware ADS-B
Sun 12:46:12 AM 45.4990 -81.9690 63° Northeast 566 651 35,000 286 Climbing FlightAware ADS-B
Sun 12:47:00 AM 45.5560 -81.8110 63° Northeast 566 651 35,000  Level FlightAware ADS-B
Sun 12:47:40 AM 45.6030 -81.6770 63° Northeast 565 650 35,000  Level FlightAware ADS-B
Sun 12:48:20 AM 45.6500 -81.5450 63° Northeast 566 651 35,000  Level FlightAware ADS-B
Sun 12:49:04 AM 45.7020 -81.3960 63° Northeast 567 652 35,000  Level FlightAware ADS-B
Sun 12:49:40 AM 45.7440 -81.2780 63° Northeast 568 654 35,000  Level FlightAware ADS-B
Sun 12:50:22 AM 45.7930 -81.1360 64° Northeast 570 656 35,000  Level FlightAware ADS-B
Sun 12:51:02 AM 45.8400 -80.9990 64° Northeast 571 657 35,000  Level FlightAware ADS-B
Sun 12:51:38 AM 45.8810 -80.8800 64° Northeast 573 659 35,000  Level FlightAware ADS-B
Sun 12:52:22 AM 45.9330 -80.7300 63° Northeast 573 659 35,000  Level FlightAware ADS-B
Sun 12:53:02 AM 45.9800 -80.5920 64° Northeast 574 661 35,000  Level FlightAware ADS-B
Sun 12:53:38 AM 46.0210 -80.4690 64° Northeast 575 662 35,000  Level FlightAware ADS-B
Sun 12:54:18 AM 46.0680 -80.3290 64° Northeast 577 664 35,000  Level FlightAware ADS-B
Sun 12:54:58 AM 46.1150 -80.1920 64° Northeast 576 663 35,000  Level FlightAware ADS-B
Sun 12:55:45 AM 46.1690 -80.0280 65° Northeast 574 661 35,000  Level FlightAware ADS-B
Sun 12:56:24 AM 46.2130 -79.8960 64° Northeast 575 662 35,000  Level FlightAware ADS-B
Sun 12:57:08 AM 46.2640 -79.7430 64° Northeast 577 664 35,000  Level FlightAware ADS-B
Sun 12:57:48 AM 46.3100 -79.6030 65° Northeast 576 663 35,000  Level FlightAware ADS-B
Sun 12:58:25 AM 46.3500 -79.4780 65° Northeast 575 662 35,000  Level FlightAware ADS-B
Sun 12:59:04 AM 46.3910 -79.3340 68° East 579 666 35,000  Level FlightAware ADS-B
Sun 12:59:45 AM 46.4310 -79.1880 68° East 578 665 35,000  Level FlightAware ADS-B
Sun 01:00:23 AM 46.4680 -79.0530 68° East 578 665 35,000  Level FlightAware ADS-B
Sun 01:01:05 AM 46.5090 -78.9000 69° East 578 665 35,000  Level FlightAware ADS-B
Sun 01:01:47 AM 46.5490 -78.7500 69° East 575 662 35,000  Level FlightAware ADS-B
Sun 01:02:27 AM 46.5870 -78.6070 69° East 571 657 35,000  Level FlightAware ADS-B
Sun 01:03:13 AM 46.6300 -78.4420 69° East 569 655 35,000  Level FlightAware ADS-B
Sun 01:03:53 AM 46.6680 -78.2980 69° East 567 652 35,000  Level FlightAware ADS-B
Sun 01:04:37 AM 46.7080 -78.1430 69° East 566 651 35,000  Level FlightAware ADS-B
Sun 01:05:13 AM 46.7420 -78.0120 69° East 567 652 35,000  Level FlightAware ADS-B
Sun 01:05:53 AM 46.7800 -77.8690 69° East 565 650 35,000  Level FlightAware ADS-B
Sun 01:06:33 AM 46.8320 -77.7430 59° Northeast 559 643 35,000  Level FlightAware ADS-B
Sun 01:07:15 AM 46.8910 -77.6070 58° Northeast 562 647 35,000  Level FlightAware ADS-B
Sun 01:07:59 AM 46.9520 -77.4680 57° Northeast 563 648 35,000  Level FlightAware ADS-B
Sun 01:08:39 AM 47.0080 -77.3380 58° Northeast 563 648 35,000  Level FlightAware ADS-B
Sun 01:09:23 AM 47.0690 -77.1980 57° Northeast 564 649 35,000  Level FlightAware ADS-B
Sun 01:10:03 AM 47.1250 -77.0690 57° Northeast 563 648 35,000  Level FlightAware ADS-B
Sun 01:10:40 AM 47.1770 -76.9470 58° Northeast 562 647 35,000  Level FlightAware ADS-B
Sun 01:13:22 AM 47.3740 -76.4950 57° Northeast 562 647 35,000  Level FlightAware ADS-B
Sun 01:14:11 AM 47.4330 -76.3610 57° Northeast 562 647 35,000  Level FlightAware ADS-B
Sun 01:14:47 AM 47.4770 -76.2620 57° Northeast 562 647 35,000  Level FlightAware ADS-B
Sun 01:15:35 AM 47.5340 -76.1300 57° Northeast 562 647 35,000  Level FlightAware ADS-B
Sun 01:16:12 AM 47.5790 -76.0290 57° Northeast 562 647 35,000  Level FlightAware ADS-B
Sun 01:16:58 AM 47.6340 -75.9020 57° Northeast 562 647 35,000  Level FlightAware ADS-B
Sun 01:17:34 AM 47.6780 -75.8030 57° Northeast 562 647 35,000  Level FlightAware ADS-B
Sun 01:18:23 AM 47.7370 -75.6680 57° Northeast 562 647 35,000  Level FlightAware ADS-B
Sun 01:18:59 AM 47.7800 -75.5690 57° Northeast 562 647 35,000  Level FlightAware ADS-B
Sun 01:19:47 AM 47.8380 -75.4370 57° Northeast 562 647 35,000  Level FlightAware ADS-B
Sun 01:20:23 AM 47.8810 -75.3370 57° Northeast 562 647 35,000  Level FlightAware ADS-B
Sun 01:22:43 AM 48.1390 -74.6000 62° Northeast 550 633 35,000  Level FlightAware ADS-B
Sun 01:23:42 AM 48.2160 -74.4030 60° Northeast 550 633 35,000  Level FlightAware ADS-B
Sun 01:24:23 AM 48.2690 -74.2660 60° Northeast 553 636 35,000  Level FlightAware ADS-B
Sun 01:25:18 AM 48.3350 -74.0940 60° Northeast 553 636 35,000  Level FlightAware ADS-B
Sun 01:25:56 AM 48.3770 -73.9860 60° Northeast 553 636 35,000  Level FlightAware ADS-B
Sun 01:26:56 AM 48.4580 -73.7750 60° Northeast 553 636 35,000  Level FlightAware ADS-B
Sun 01:27:33 AM 48.5070 -73.6440 61° Northeast 549 632 35,000  Level FlightAware ADS-B
Sun 01:28:12 AM 48.5490 -73.5340 60° Northeast 549 632 35,000  Level FlightAware ADS-B
Sun 01:28:48 AM 48.5880 -73.4330 60° Northeast 549 632 35,000  Level FlightAware ADS-B
Sun 01:29:36 AM 48.6400 -73.2970 60° Northeast 549 632 35,000  Level FlightAware ADS-B
Sun 01:30:12 AM 48.6790 -73.1950 60° Northeast 549 632 35,000  Level FlightAware ADS-B
Sun 01:30:48 AM 48.7180 -73.0930 60° Northeast 549 632 35,000  Level FlightAware ADS-B
Sun 01:31:49 AM 48.8220 -72.8020 61° Northeast 551 634 35,000  Level FlightAware ADS-B
Sun 01:32:25 AM 48.8610 -72.6990 60° Northeast 551 634 35,000  Level FlightAware ADS-B
Sun 01:33:07 AM 48.9270 -72.5100 62° Northeast 557 641 35,000  Level FlightAware ADS-B
Sun 01:34:04 AM 48.9970 -72.3160 61° Northeast 558 642 35,000  Level FlightAware ADS-B
Sun 01:34:47 AM 49.0510 -72.1680 61° Northeast 559 643 35,000  Level FlightAware ADS-B
Sun 01:35:21 AM 49.0930 -72.0490 62° Northeast 560 644 35,000  Level FlightAware ADS-B
Sun 01:36:01 AM 49.1410 -71.9130 62° Northeast 560 644 35,000  Level FlightAware ADS-B
Sun 01:36:47 AM 49.1980 -71.7530 61° Northeast 559 643 35,000  Level FlightAware ADS-B
Sun 01:37:22 AM 49.2400 -71.6320 62° Northeast 561 646 35,000  Level FlightAware ADS-B
Sun 01:38:02 AM 49.2830 -71.5120 61° Northeast 561 646 35,000  Level FlightAware ADS-B
Sun 01:38:50 AM 49.3340 -71.3700 61° Northeast 561 646 35,000  Level FlightAware ADS-B
Sun 01:39:26 AM 49.3730 -71.2630 61° Northeast 561 646 35,000  Level FlightAware ADS-B
Sun 01:40:26 AM 49.4370 -71.0860 61° Northeast 561 646 35,000  Level FlightAware ADS-B
Sun 01:41:02 AM 49.4750 -70.9790 61° Northeast 561 646 35,000  Level FlightAware ADS-B
Sun 01:41:51 AM 49.5280 -70.8330 61° Northeast 561 646 35,000  Level FlightAware ADS-B
Sun 01:42:27 AM 49.5660 -70.7260 61° Northeast 561 646 35,000  Level FlightAware ADS-B
Sun 01:43:03 AM 49.6050 -70.6190 61° Northeast 561 646 35,000  Level FlightAware ADS-B
Sun 01:43:51 AM 49.6560 -70.4760 61° Northeast 561 646 35,000  Level FlightAware ADS-B
Sun 01:44:27 AM 49.6950 -70.3680 61° Northeast 561 646 35,000  Level FlightAware ADS-B
Sun 01:45:15 AM 49.7460 -70.2250 61° Northeast 561 646 35,000  Level FlightAware ADS-B
Sun 01:45:51 AM 49.7840 -70.1180 61° Northeast 561 646 35,000  Level FlightAware ADS-B
Sun 01:46:39 AM 49.8360 -69.9740 61° Northeast 561 646 35,000  Level FlightAware ADS-B
Sun 01:47:16 AM 49.8750 -69.8630 61° Northeast 561 646 35,000  Level FlightAware ADS-B
Sun 01:48:02 AM 49.9833 -69.3667 61° Northeast 560 644 35,000  Level Moncton Center
Sun 01:49:02 AM 50.0500 -69.1667 63° Northeast 560 644 35,000  Level Moncton Center
Sun 01:50:02 AM 50.1167 -68.9500 64° Northeast 560 644 35,000  Level Moncton Center
Sun 01:51:02 AM 50.2000 -68.7167 61° Northeast 560 644 35,000  Level Moncton Center
Sun 01:52:02 AM 50.2500 -68.5167 69° East 560 644 35,000  Level Moncton Center
Sun 01:53:02 AM 50.3333 -68.2833 61° Northeast 560 644 35,000  Level Moncton Center
Sun 01:54:02 AM 50.3833 -68.0667 70° East 560 644 35,000  Level Moncton Center
Sun 01:55:02 AM 50.4667 -67.8500 59° Northeast 560 644 35,000  Level Moncton Center
Sun 01:56:02 AM 50.5333 -67.6167 66° East 560 644 35,000  Level Moncton Center
Sun 01:57:02 AM 50.6000 -67.3833 66° East 560 644 35,000  Level Moncton Center
Sun 01:58:02 AM 50.6667 -67.1667 64° Northeast 560 644 35,000  Level Moncton Center
Sun 01:59:02 AM 50.7333 -66.9333 66° East 560 644 35,000  Level Moncton Center
Sun 02:00:02 AM 50.7833 -66.7333 68° East 560 644 35,000  Level Moncton Center
Sun 02:01:02 AM 50.8667 -66.5000 60° Northeast 560 644 35,000  Level Moncton Center
Sun 02:02:02 AM 50.9167 -66.2500 72° East 560 644 35,000  Level Moncton Center
Sun 02:03:02 AM 50.9833 -66.0500 62° Northeast 560 644 35,000  Level Moncton Center
Sun 02:04:02 AM 51.0500 -65.8000 67° East 560 644 35,000  Level Moncton Center
Sun 02:05:02 AM 51.1167 -65.5667 65° Northeast 560 644 35,000  Level Moncton Center
Sun 02:06:02 AM 51.1833 -65.3500 64° Northeast 550 633 35,000  Level Moncton Center
Sun 02:07:02 AM 51.2333 -65.1167 71° East 560 644 35,000  Level Moncton Center
Sun 02:08:02 AM 51.3000 -64.9000 64° Northeast 560 644 35,000  Level Moncton Center
Sun 02:09:02 AM 51.3667 -64.6667 65° Northeast 570 656 35,000  Level Moncton Center
Sun 02:10:02 AM 51.4167 -64.4167 72° East 570 656 35,000  Level Moncton Center
Sun 02:11:02 AM 51.4833 -64.1833 65° Northeast 570 656 35,000  Level Moncton Center
Sun 02:12:02 AM 51.5500 -63.9667 64° Northeast 580 667 35,000  Level Moncton Center
Sun 02:13:02 AM 51.6167 -63.7000 68° East 580 667 35,000  Level Moncton Center
Sun 02:14:02 AM 51.6667 -63.4833 70° East 570 656 35,000  Level Moncton Center
Sun 02:15:02 AM 51.7333 -63.2333 67° East 570 656 35,000  Level Moncton Center
Sun 02:16:02 AM 51.7833 -62.9833 72° East 570 656 35,000  Level Moncton Center
Sun 02:17:02 AM 51.8333 -62.7500 71° East 570 656 35,000  Level Moncton Center
Sun 02:18:02 AM 51.8833 -62.5333 69° East 570 656 35,000  Level Moncton Center
Sun 02:19:02 AM 51.9500 -62.2833 67° East 570 656 35,000  Level Moncton Center
Sun 02:20:02 AM 52.0167 -62.0333 66° East 570 656 35,000  Level Moncton Center
Sun 02:21:02 AM 52.0500 -61.7833 78° East 580 667 35,000  Level Moncton Center
Sun 02:22:02 AM 52.1167 -61.5333 66° East 580 667 35,000  Level Moncton Center
Sun 02:23:02 AM 52.2000 -61.3167 58° Northeast 580 667 35,000  Level Moncton Center
Sun 02:24:02 AM 52.2500 -61.0667 72° East 580 667 35,000  Level Moncton Center
Sun 02:25:02 AM 52.3333 -60.8167 61° Northeast 580 667 35,000  Level Moncton Center
Sun 02:26:02 AM 52.4000 -60.5833 65° Northeast 590 679 35,000  Level Moncton Center
Sun 02:27:02 AM 52.4667 -60.3333 66° East 580 667 35,000  Level Moncton Center
Sun 02:28:02 AM 52.5500 -60.1000 60° Northeast 580 667 35,000  Level Moncton Center
Sun 02:29:02 AM 52.6000 -59.8833 69° East 580 667 35,000  Level Moncton Center
Sun 02:30:02 AM 52.6833 -59.6167 63° Northeast 580 667 35,000  Level Moncton Center
Sun 02:31:02 AM 52.7500 -59.3667 66° East 580 667 35,000  Level Moncton Center
Sun 02:32:02 AM 52.8000 -59.1333 70° East 580 667 35,000  Level Moncton Center
Sun 02:33:02 AM 52.8667 -58.9167 63° Northeast 580 667 35,000  Level Moncton Center
Sun 02:34:02 AM 52.9333 -58.6500 67° East 580 667 35,000  Level Moncton Center
Sun 02:35:02 AM 53.0167 -58.4167 59° Northeast 580 667 35,000  Level Moncton Center
Sun 02:36:02 AM 53.0667 -58.1667 72° East 570 656 35,000  Level Moncton Center
Sun 02:37:02 AM 53.1333 -57.9333 64° Northeast 570 656 35,000  Level Moncton Center
Sun 02:38:02 AM 53.1833 -57.6667 73° East 570 656 35,000  Level Moncton Center
Sun 02:39:02 AM 53.2667 -57.4333 59° Northeast 570 656 35,000  Level Moncton Center
Sun 02:40:02 AM 53.3167 -57.2000 70° East 570 656 35,000  Level Moncton Center
Sun 02:41:02 AM 53.3833 -56.9667 64° Northeast 570 656 35,000  Level Moncton Center
Sun 02:42:02 AM 53.4333 -56.7333 70° East 570 656 35,000  Level Moncton Center
Sun 02:43:02 AM 53.5000 -56.4667 67° East 570 656 35,000 50 Level Moncton Center
Sun 02:44:02 AM 53.5500 -56.2333 70° East 570 656 35,100 550 Climbing Moncton Center
Sun 02:45:02 AM 53.6167 -55.9667 67° East 560 644 36,100 850 Climbing Moncton Center
Sun 02:46:02 AM 53.6667 -55.7500 69° East 550 633 36,800 450 Climbing Moncton Center
Sun 02:47:02 AM 53.7333 -55.4833 67° East 550 633 37,000 100 Climbing Moncton Center
Sun 02:48:02 AM 53.7833 -55.2500 70° East 560 644 37,000  Level Moncton Center
Sun 02:49:02 AM 53.8333 -55.0000 71° East 560 644 37,000  Level Moncton Center
Sun 02:50:02 AM 53.9000 -54.7667 64° Northeast 560 644 37,000  Level Moncton Center
Sun 02:51:02 AM 53.9667 -54.5167 66° East 560 644 37,000  Level Moncton Center
Sun 02:52:02 AM 54.0333 -54.2833 64° Northeast 570 656 37,000  Level Moncton Center
Sun 02:53:02 AM 54.0833 -54.0333 71° East 570 656 37,000  Level Moncton Center
Sun 02:55:00 AM 54.1921 -53.5927 67° East  Level FlightAware Approximate
Sun 03:02:00 AM 54.5661 -52.0058 67° East  Level FlightAware Approximate
Sun 03:03:00 AM 54.6178 -51.7767 69° East  Level FlightAware Approximate
Sun 03:04:00 AM 54.6690 -51.5471 69° East  Level FlightAware Approximate
Sun 03:05:00 AM 54.7199 -51.3169 69° East  Level FlightAware Approximate
Sun 03:06:00 AM 54.7703 -51.0861 69° East  Level FlightAware Approximate
Sun 03:07:00 AM 54.8203 -50.8547 69° East  Level FlightAware Approximate
Sun 03:08:00 AM 54.8698 -50.6228 70° East  Level FlightAware Approximate
Sun 03:09:00 AM 54.9189 -50.3903 70° East  Level FlightAware Approximate
Sun 03:10:00 AM 54.9675 -50.1572 70° East  Level FlightAware Approximate
Sun 03:11:00 AM 55.0252 -49.9314 57° Northeast  Level FlightAware Approximate
Sun 03:12:00 AM 55.1017 -49.7216 57° Northeast  Level FlightAware Approximate
Sun 03:13:00 AM 55.1778 -49.5110 58° Northeast  Level FlightAware Approximate
Sun 03:14:00 AM 55.2536 -49.2996 58° Northeast  Level FlightAware Approximate
Sun 03:15:00 AM 55.3290 -49.0874 58° Northeast  Level FlightAware Approximate
Sun 03:16:00 AM 55.4041 -48.8744 58° Northeast  Level FlightAware Approximate
Sun 03:17:00 AM 55.4788 -48.6606 58° Northeast  Level FlightAware Approximate
Sun 03:18:00 AM 55.5531 -48.4460 58° Northeast  Level FlightAware Approximate
Sun 03:19:00 AM 55.6270 -48.2306 59° Northeast  Level FlightAware Approximate
Sun 03:20:00 AM 55.7006 -48.0143 59° Northeast  Level FlightAware Approximate
Sun 03:21:00 AM 55.7737 -47.7973 59° Northeast  Level FlightAware Approximate
Sun 03:22:00 AM 55.8465 -47.5794 59° Northeast  Level FlightAware Approximate
Sun 03:23:00 AM 55.9189 -47.3607 59° Northeast  Level FlightAware Approximate
Sun 03:24:00 AM 55.9909 -47.1412 60° Northeast  Level FlightAware Approximate
Sun 03:25:00 AM 56.0626 -46.9209 60° Northeast  Level FlightAware Approximate
Sun 03:26:00 AM 56.1338 -46.6998 60° Northeast  Level FlightAware Approximate
Sun 03:27:00 AM 56.2046 -46.4778 60° Northeast  Level FlightAware Approximate
Sun 03:28:00 AM 56.2751 -46.2551 60° Northeast  Level FlightAware Approximate
Sun 03:29:00 AM 56.3451 -46.0315 60° Northeast  Level FlightAware Approximate
Sun 03:30:00 AM 56.4147 -45.8071 61° Northeast  Level FlightAware Approximate
Sun 03:31:00 AM 56.4839 -45.5818 61° Northeast  Level FlightAware Approximate
Sun 03:32:00 AM 56.5527 -45.3558 61° Northeast  Level FlightAware Approximate
Sun 03:33:00 AM 56.6211 -45.1289 61° Northeast  Level FlightAware Approximate
Sun 03:34:00 AM 56.6891 -44.9012 61° Northeast  Level FlightAware Approximate
Sun 03:35:00 AM 56.7567 -44.6727 62° Northeast  Level FlightAware Approximate
Sun 03:36:00 AM 56.8238 -44.4434 62° Northeast  Level FlightAware Approximate
Sun 03:37:00 AM 56.8906 -44.2132 62° Northeast  Level FlightAware Approximate
Sun 03:38:00 AM 56.9569 -43.9822 62° Northeast  Level FlightAware Approximate
Sun 03:39:00 AM 57.0228 -43.7504 62° Northeast  Level FlightAware Approximate
Sun 03:40:00 AM 57.0882 -43.5178 63° Northeast  Level FlightAware Approximate
Sun 03:41:00 AM 57.1532 -43.2844 63° Northeast  Level FlightAware Approximate
Sun 03:42:00 AM 57.2178 -43.0501 63° Northeast  Level FlightAware Approximate
Sun 03:43:00 AM 57.2819 -42.8150 63° Northeast  Level FlightAware Approximate
Sun 03:44:00 AM 57.3456 -42.5791 63° Northeast  Level FlightAware Approximate
Sun 03:45:00 AM 57.4089 -42.3424 64° Northeast  Level FlightAware Approximate
Sun 03:46:00 AM 57.4717 -42.1049 64° Northeast  Level FlightAware Approximate
Sun 03:47:00 AM 57.5341 -41.8666 64° Northeast  Level FlightAware Approximate
Sun 03:48:00 AM 57.5960 -41.6274 64° Northeast  Level FlightAware Approximate
Sun 03:49:00 AM 57.6575 -41.3874 64° Northeast  Level FlightAware Approximate
Sun 03:50:00 AM 57.7185 -41.1466 65° Northeast  Level FlightAware Approximate
Sun 03:51:00 AM 57.7790 -40.9050 65° Northeast  Level FlightAware Approximate
Sun 03:52:00 AM 57.8391 -40.6627 65° Northeast  Level FlightAware Approximate
Sun 03:53:00 AM 57.8987 -40.4194 65° Northeast  Level FlightAware Approximate
Sun 03:54:00 AM 57.9579 -40.1754 65° Northeast  Level FlightAware Approximate
Sun 03:55:00 AM 58.0173 -39.9312 65° Northeast  Level FlightAware Approximate
Sun 03:56:00 AM 58.0780 -39.6878 65° Northeast  Level FlightAware Approximate
Sun 03:57:00 AM 58.1383 -39.4435 65° Northeast  Level FlightAware Approximate
Sun 03:58:00 AM 58.1981 -39.1984 65° Northeast  Level FlightAware Approximate
Sun 03:59:00 AM 58.2574 -38.9525 65° Northeast  Level FlightAware Approximate
Sun 04:00:00 AM 58.3163 -38.7058 65° Northeast  Level FlightAware Approximate
Sun 04:01:00 AM 58.3747 -38.4582 66° East  Level FlightAware Approximate
Sun 04:02:00 AM 58.4326 -38.2099 66° East  Level FlightAware Approximate
Sun 04:03:00 AM 58.4900 -37.9607 66° East  Level FlightAware Approximate
Sun 04:04:00 AM 58.5469 -37.7107 66° East  Level FlightAware Approximate
Sun 04:05:00 AM 58.6034 -37.4599 67° East  Level FlightAware Approximate
Sun 04:06:00 AM 58.6593 -37.2082 67° East  Level FlightAware Approximate
Sun 04:07:00 AM 58.7148 -36.9558 67° East  Level FlightAware Approximate
Sun 04:08:00 AM 58.7698 -36.7026 67° East  Level FlightAware Approximate
Sun 04:09:00 AM 58.8243 -36.4486 67° East  Level FlightAware Approximate
Sun 04:10:00 AM 58.8783 -36.1937 68° East  Level FlightAware Approximate
Sun 04:11:00 AM 58.9317 -35.9381 68° East  Level FlightAware Approximate
Sun 04:12:00 AM 58.9848 -35.6819 68° East  Level FlightAware Approximate
Sun 04:13:00 AM 59.0375 -35.4248 68° East  Level FlightAware Approximate
Sun 04:14:00 AM 59.0897 -35.1670 68° East  Level FlightAware Approximate
Sun 04:15:00 AM 59.1414 -34.9085 69° East  Level FlightAware Approximate
Sun 04:16:00 AM 59.1925 -34.6491 69° East  Level FlightAware Approximate
Sun 04:17:00 AM 59.2432 -34.3890 69° East  Level FlightAware Approximate
Sun 04:18:00 AM 59.2933 -34.1281 69° East  Level FlightAware Approximate
Sun 04:19:00 AM 59.3429 -33.8664 70° East  Level FlightAware Approximate
Sun 04:20:00 AM 59.3919 -33.6040 70° East  Level FlightAware Approximate
Sun 04:21:00 AM 59.4405 -33.3408 70° East  Level FlightAware Approximate
Sun 04:22:00 AM 59.4885 -33.0769 70° East  Level FlightAware Approximate
Sun 04:23:00 AM 59.5360 -32.8122 70° East  Level FlightAware Approximate
Sun 04:24:00 AM 59.5829 -32.5468 71° East  Level FlightAware Approximate
Sun 04:25:00 AM 59.6293 -32.2806 71° East  Level FlightAware Approximate
Sun 04:26:00 AM 59.6752 -32.0137 71° East  Level FlightAware Approximate
Sun 04:27:00 AM 59.7205 -31.7461 71° East  Level FlightAware Approximate
Sun 04:28:00 AM 59.7653 -31.4778 72° East  Level FlightAware Approximate
Sun 04:29:00 AM 59.8095 -31.2087 72° East  Level FlightAware Approximate
Sun 04:30:00 AM 59.8531 -30.9390 72° East  Level FlightAware Approximate
Sun 04:31:00 AM 59.8963 -30.6685 72° East  Level FlightAware Approximate
Sun 04:32:00 AM 59.9388 -30.3973 72° East  Level FlightAware Approximate
Sun 04:33:00 AM 59.9808 -30.1255 73° East  Level FlightAware Approximate
Sun 04:34:00 AM 60.0339 -29.8620 64° Northeast  Level FlightAware Approximate
Sun 04:35:00 AM 60.0964 -29.6056 64° Northeast  Level FlightAware Approximate
Sun 04:36:00 AM 60.1584 -29.3481 64° Northeast  Level FlightAware Approximate
Sun 04:37:00 AM 60.2199 -29.0897 64° Northeast  Level FlightAware Approximate
Sun 04:38:00 AM 60.2809 -28.8303 65° Northeast  Level FlightAware Approximate
Sun 04:39:00 AM 60.3414 -28.5700 65° Northeast  Level FlightAware Approximate
Sun 04:40:00 AM 60.4014 -28.3086 65° Northeast  Level FlightAware Approximate
Sun 04:41:00 AM 60.4608 -28.0464 65° Northeast  Level FlightAware Approximate
Sun 04:42:00 AM 60.5198 -27.7831 65° Northeast  Level FlightAware Approximate
Sun 04:43:00 AM 60.5782 -27.5189 66° East  Level FlightAware Approximate
Sun 04:44:00 AM 60.6362 -27.2539 65° Northeast  Level FlightAware Approximate
Sun 04:44:40 AM 60.6790 -27.0380 65° Northeast 492 566 37,000  Level FlightAware ADS-B
Sun 04:45:00 AM 60.6951 -26.9892 65° Northeast  Level FlightAware Approximate
Sun 04:45:10 AM 60.7080 -26.9090 65° Northeast 491 565 37,000  Level FlightAware ADS-B
Sun 04:45:54 AM 60.7430 -26.7460 66° East 491 565 37,000  Level FlightAware ADS-B
Sun 04:46:42 AM 60.7810 -26.5720 66° East 491 565 37,000  Level FlightAware ADS-B
Sun 04:47:24 AM 60.8300 -26.3420 66° East 490 564 37,000  Level FlightAware ADS-B
Sun 04:48:06 AM 60.8650 -26.1810 66° East 490 564 37,000  Level FlightAware ADS-B
Sun 04:48:58 AM 60.9100 -25.9660 67° East 492 566 37,000  Level FlightAware ADS-B
Sun 04:49:46 AM 60.9480 -25.7910 66° East 492 566 37,000  Level FlightAware ADS-B
Sun 04:50:23 AM 60.9870 -25.5890 68° East 494 568 37,000  Level FlightAware ADS-B
Sun 04:51:11 AM 61.0230 -25.4120 67° East 494 568 37,000  Level FlightAware ADS-B
Sun 04:51:53 AM 61.0690 -25.1830 67° East 491 565 37,000  Level FlightAware ADS-B
Sun 04:52:33 AM 61.1010 -25.0240 67° East 491 565 37,000  Level FlightAware ADS-B
Sun 04:53:14 AM 61.1390 -24.8350 67° East 490 564 37,000  Level FlightAware ADS-B
Sun 04:53:54 AM 61.1720 -24.6640 68° East 488 562 37,000 -225 Level FlightAware ADS-B
Sun 04:54:34 AM 61.2060 -24.4910 68° East 491 565 36,700 -525 Descending FlightAware ADS-B
Sun 04:55:14 AM 61.2400 -24.3150 68° East 499 574 36,300 -643 Descending FlightAware ADS-B
Sun 04:55:58 AM 61.2770 -24.1200 68° East 496 571 35,800 -837 Descending FlightAware ADS-B
Sun 04:56:40 AM 61.3120 -23.9340 69° East 496 571 35,100 -1,000 Descending FlightAware ADS-B
Sun 04:57:22 AM 61.3480 -23.7470 68° East 496 571 34,400 -1,000 Descending FlightAware ADS-B
Sun 04:57:58 AM 61.3770 -23.5880 69° East 497 572 33,800 -960 Descending FlightAware ADS-B
Sun 04:58:37 AM 61.4100 -23.4120 69° East 499 574 33,200 -640 Descending FlightAware ADS-B
Sun 04:59:13 AM 61.4390 -23.2520 69° East 500 575 33,000 -143 Descending FlightAware ADS-B
Sun 05:00:01 AM 61.4780 -23.0350 69° East 499 574 33,000  Level FlightAware ADS-B
Sun 05:00:38 AM 61.4990 -22.8640 75° East 493 567 33,000  Level FlightAware ADS-B
Sun 05:01:20 AM 61.5130 -22.6640 82° East 494 568 33,000  Level FlightAware ADS-B
Sun 05:02:00 AM 61.5270 -22.4780 81° East 496 571 33,000  Level FlightAware ADS-B
Sun 05:02:43 AM 61.5410 -22.2690 82° East 496 571 33,000  Level FlightAware ADS-B
Sun 05:03:25 AM 61.5540 -22.0720 82° East 494 568 33,000  Level FlightAware ADS-B
Sun 05:04:09 AM 61.5680 -21.8610 82° East 492 566 33,000  Level FlightAware ADS-B
Sun 05:04:50 AM 61.5800 -21.6710 82° East 490 564 33,000  Level FlightAware ADS-B
Sun 05:05:26 AM 61.5900 -21.5030 83° East 489 563 33,000  Level FlightAware ADS-B
Sun 05:06:06 AM 61.6020 -21.3150 82° East 488 562 33,000  Level FlightAware ADS-B
Sun 05:06:50 AM 61.6140 -21.1130 83° East 489 563 33,000  Level FlightAware ADS-B
Sun 05:07:30 AM 61.6250 -20.9170 83° East 490 564 33,000  Level FlightAware ADS-B
Sun 05:08:05 AM 61.6340 -20.7510 83° East 491 565 33,000  Level FlightAware ADS-B
Sun 05:08:47 AM 61.6460 -20.5520 83° East 491 565 33,000  Level FlightAware ADS-B
Sun 05:09:30 AM 61.6560 -20.3550 84° East 487 560 33,000  Level FlightAware ADS-B
Sun 05:10:11 AM 61.6660 -20.1590 84° East 484 557 33,000  Level FlightAware ADS-B
Sun 05:10:55 AM 61.6770 -19.9590 83° East 486 559 33,000  Level FlightAware ADS-B
Sun 05:11:59 AM 61.6900 -19.6820 84° East 489 563 33,000  Level FlightAware ADS-B
Sun 05:12:43 AM 61.7010 -19.4470 84° East 488 562 33,000  Level FlightAware ADS-B
Sun 05:13:23 AM 61.7100 -19.2560 84° East 487 560 33,000  Level FlightAware ADS-B
Sun 05:14:05 AM 61.7190 -19.0640 84° East 486 559 33,000  Level FlightAware ADS-B
Sun 05:15:03 AM 61.7310 -18.7840 85° East 487 560 33,000  Level FlightAware ADS-B
Sun 05:15:52 AM 61.7400 -18.5560 85° East 487 560 33,000  Level FlightAware ADS-B
Sun 05:16:32 AM 61.7470 -18.3680 85° East 484 557 33,000  Level FlightAware ADS-B
Sun 05:17:09 AM 61.7540 -18.1900 85° East 486 559 33,000  Level FlightAware ADS-B
Sun 05:17:56 AM 61.7620 -17.9710 85° East 488 562 33,000  Level FlightAware ADS-B
Sun 05:18:39 AM 61.7690 -17.7700 86° East 488 562 33,000  Level FlightAware ADS-B
Sun 05:19:19 AM 61.7750 -17.5760 86° East 488 562 33,000  Level FlightAware ADS-B
Sun 05:20:03 AM 61.7820 -17.3670 86° East 488 562 33,000  Level FlightAware ADS-B
Sun 05:20:37 AM 61.7870 -17.2030 86° East 489 563 33,000  Level FlightAware ADS-B
Sun 05:21:20 AM 61.7930 -17.0040 86° East 489 563 33,000  Level FlightAware ADS-B
Sun 05:22:08 AM 61.7990 -16.7740 87° East 489 563 33,000  Level FlightAware ADS-B
Sun 05:22:52 AM 61.8050 -16.5640 86° East 487 560 33,000  Level FlightAware ADS-B
Sun 05:23:34 AM 61.8100 -16.3920 86° East 487 560 33,000  Level FlightAware ADS-B
Sun 05:24:10 AM 61.8130 -16.1960 88° East 485 558 33,000  Level FlightAware ADS-B
Sun 05:24:56 AM 61.8180 -15.9770 87° East 486 559 33,000  Level FlightAware ADS-B
Sun 05:25:32 AM 61.8220 -15.8030 87° East 486 559 33,000  Level FlightAware ADS-B
Sun 05:26:14 AM 61.8250 -15.6150 88° East 486 559 33,000  Level FlightAware ADS-B
Sun 05:26:58 AM 61.8290 -15.3980 88° East 485 558 33,000  Level FlightAware ADS-B
Sun 05:27:37 AM 61.8320 -15.2120 88° East 484 557 33,000  Level FlightAware ADS-B
Sun 05:28:15 AM 61.8350 -15.0360 88° East 484 557 33,000  Level FlightAware ADS-B
Sun 05:28:55 AM 61.8370 -14.8470 89° East 485 558 33,000  Level FlightAware ADS-B
Sun 05:29:37 AM 61.8400 -14.6450 88° East 485 558 33,000  Level FlightAware ADS-B
Sun 05:30:17 AM 61.8420 -14.4610 89° East 485 558 33,000  Level FlightAware ADS-B
Sun 05:31:01 AM 61.8440 -14.2510 89° East 486 559 33,000  Level FlightAware ADS-B
Sun 05:31:41 AM 61.8450 -14.0630 89° East 486 559 33,000  Level FlightAware ADS-B
Sun 05:32:27 AM 61.8460 -13.8450 89° East 487 560 33,000  Level FlightAware ADS-B
Sun 05:33:07 AM 61.8470 -13.6540 89° East 487 560 33,000  Level FlightAware ADS-B
Sun 05:33:55 AM 61.8480 -13.4250 89° East 487 560 33,000  Level FlightAware ADS-B
Sun 05:34:35 AM 61.8480 -13.2370 90° East 486 559 33,000  Level FlightAware ADS-B
Sun 05:35:15 AM 61.8480 -13.0440 90° East 485 558 33,000  Level FlightAware ADS-B
Sun 05:35:55 AM 61.8480 -12.8570 90° East 485 558 33,000  Level FlightAware ADS-B
Sun 05:36:39 AM 61.8480 -12.6460 90° East 486 559 33,000  Level FlightAware ADS-B
Sun 05:37:11 AM 61.8470 -12.5010 91° East 486 559 33,000  Level FlightAware ADS-B
Sun 05:37:55 AM 61.8460 -12.2890 90° East 486 559 33,000  Level FlightAware ADS-B
Sun 05:38:49 AM 61.8450 -12.0480 90° East 487 560 33,000  Level FlightAware ADS-B
Sun 05:39:25 AM 61.8450 -11.9020 90° East 487 560 33,000  Level FlightAware ADS-B
Sun 05:41:09 AM 61.8370 -11.3660 92° East 489 563 33,000  Level FlightAware ADS-B
Sun 05:41:43 AM 61.8360 -11.2290 91° East 490 564 33,000  Level FlightAware ADS-B
Sun 05:42:31 AM 61.8350 -11.0330 91° East 490 564 33,000  Level FlightAware ADS-B
Sun 05:43:13 AM 61.8290 -10.7700 93° East 493 567 33,000  Level FlightAware ADS-B
Sun 05:43:53 AM 61.8250 -10.5840 93° East 494 568 33,000  Level FlightAware ADS-B
Sun 05:44:35 AM 61.8210 -10.3750 92° East 497 572 33,000  Level FlightAware ADS-B
Sun 05:45:21 AM 61.8170 -10.1590 92° East 500 575 33,000  Level FlightAware ADS-B
Sun 05:46:05 AM 61.8140 -9.9700 92° East 500 575 33,000  Level FlightAware ADS-B
Sun 05:46:36 AM 61.8080 -9.7870 94° East 508 585 33,000  Level FlightAware ADS-B
Sun 05:47:22 AM 61.8040 -9.5860 92° East 510 587 33,000  Level FlightAware ADS-B
Sun 05:47:58 AM 61.8020 -9.4330 92° East 510 587 33,000  Level FlightAware ADS-B
Sun 05:48:46 AM 61.7980 -9.2290 92° East 510 587 33,000  Level FlightAware ADS-B
Sun 05:49:22 AM 61.7960 -9.0770 92° East 510 587 33,000  Level FlightAware ADS-B
Sun 05:50:10 AM 61.7930 -8.8730 92° East 510 587 33,000  Level FlightAware ADS-B
Sun 05:50:46 AM 61.7900 -8.7200 92° East 510 587 33,000  Level FlightAware ADS-B
Sun 05:51:22 AM 61.7870 -8.5680 92° East 510 587 33,000  Level FlightAware ADS-B
Sun 05:51:59 AM 61.7850 -8.4110 91° East 510 587 33,000  Level FlightAware ADS-B
Sun 05:52:42 AM 61.7520 -7.9680 99° East 510 587 33,000  Level FlightAware ADS-B
Sun 05:53:13 AM 61.7460 -7.8090 94° East 510 587 33,000  Level FlightAware ADS-B
Sun 05:53:58 AM 61.7380 -7.5910 94° East 511 588 33,000  Level FlightAware ADS-B
Sun 05:54:38 AM 61.7290 -7.3910 95° East 511 588 33,000  Level FlightAware ADS-B
Sun 05:55:22 AM 61.7200 -7.1760 95° East 512 589 33,000  Level FlightAware ADS-B
Sun 05:56:02 AM 61.7120 -6.9770 95° East 511 588 33,000  Level FlightAware ADS-B
Sun 05:56:38 AM 61.7030 -6.7970 96° East 511 588 33,000  Level FlightAware ADS-B
Sun 05:57:18 AM 61.6940 -6.6000 95° East 511 588 33,000  Level FlightAware ADS-B
Sun 05:57:50 AM 61.6870 -6.4450 95° East 509 586 33,000  Level FlightAware ADS-B
Sun 05:58:30 AM 61.6770 -6.2450 96° East 507 583 33,000  Level FlightAware ADS-B
Sun 05:59:14 AM 61.6660 -6.0310 96° East 505 581 33,000  Level FlightAware ADS-B
Sun 05:59:54 AM 61.6560 -5.8380 96° East 505 581 33,000  Level FlightAware ADS-B
Sun 06:00:34 AM 61.6450 -5.6430 97° East 505 581 33,000  Level FlightAware ADS-B
Sun 06:01:20 AM 61.6330 -5.4170 96° East 504 580 33,000  Level FlightAware ADS-B
Sun 06:01:59 AM 61.6220 -5.2280 97° East 504 580 33,000  Level FlightAware ADS-B
Sun 06:02:44 AM 61.6090 -5.0120 97° East 505 581 33,000  Level FlightAware ADS-B
Sun 06:03:24 AM 61.5970 -4.8160 97° East 508 585 33,000  Level FlightAware ADS-B
Sun 06:04:06 AM 61.5850 -4.6100 97° East 509 586 33,000  Level FlightAware ADS-B
Sun 06:04:48 AM 61.5720 -4.4060 98° East 510 587 33,000  Level FlightAware ADS-B
Sun 06:05:24 AM 61.5600 -4.2300 98° East 509 586 33,000  Level FlightAware ADS-B
Sun 06:06:04 AM 61.5470 -4.0340 98° East 509 586 33,000  Level FlightAware ADS-B
Sun 06:06:32 AM 61.5380 -3.8990 98° East 510 587 33,000  Level FlightAware ADS-B
Sun 06:07:12 AM 61.5250 -3.7020 98° East 510 587 33,000  Level FlightAware ADS-B
Sun 06:07:52 AM 61.5110 -3.5070 98° East 509 586 33,000  Level FlightAware ADS-B
Sun 06:08:32 AM 61.4970 -3.3190 99° East 508 585 33,000  Level FlightAware ADS-B
Sun 06:09:12 AM 61.4830 -3.1210 98° East 510 587 33,000  Level FlightAware ADS-B
Sun 06:10:05 AM 61.4630 -2.8610 99° East 510 587 33,000  Level FlightAware ADS-B
Sun 06:10:45 AM 61.4480 -2.6660 99° East 510 587 33,000  Level FlightAware ADS-B
Sun 06:13:00 AM 61.3893 -2.0075 100° East  Level FlightAware Approximate
Sun 06:13:24 AM 61.3870 -1.9020 100° East 517 595 33,000  Level FlightAware ADS-B
Sun 06:14:00 AM 61.3750 -1.7560 100° East 518 596 33,000  Level FlightAware ADS-B
Sun 06:14:46 AM 61.3520 -1.4900 100° East 520 598 33,000  Level FlightAware ADS-B
Sun 06:15:29 AM 61.3340 -1.2810 100° East 521 600 33,000  Level FlightAware ADS-B
Sun 06:16:09 AM 61.3160 -1.0830 101° East 520 598 33,000  Level FlightAware ADS-B
Sun 06:16:53 AM 61.2970 -0.8700 100° East 521 600 33,000  Level FlightAware ADS-B
Sun 06:17:41 AM 61.2750 -0.6360 101° East 520 598 33,000  Level FlightAware ADS-B
Sun 06:18:23 AM 61.2560 -0.4280 101° East 521 600 33,000  Level FlightAware ADS-B
Sun 06:19:05 AM 61.2360 -0.2230 101° East 524 603 33,000  Level FlightAware ADS-B
Sun 06:19:49 AM 61.2140 -0.0050 102° East 525 604 33,000  Level FlightAware ADS-B
Sun 06:21:03 AM 61.1620 0.3330 108° East 513 590 33,000  Level FlightAware ADS-B
Sun 06:21:40 AM 61.1290 0.5140 111° Southeast 513 590 33,000 77 Level FlightAware ADS-B
Sun 06:22:21 AM 61.0950 0.7000 111° Southeast 515 593 33,100 545 Climbing FlightAware ADS-B
Sun 06:22:57 AM 61.0650 0.8640 111° Southeast 518 596 33,700 1,154 Climbing FlightAware ADS-B
Sun 06:23:39 AM 61.0300 1.0560 111° Southeast 516 594 34,600 951 Climbing FlightAware ADS-B
Sun 06:24:19 AM 60.9970 1.2380 110° East 510 587 35,000 320 Climbing FlightAware ADS-B
Sun 06:24:54 AM 60.9670 1.3990 111° Southeast 509 586 35,000  Level FlightAware ADS-B
Sun 06:25:34 AM 60.9330 1.5790 111° Southeast 509 586 35,000  Level FlightAware ADS-B
Sun 06:26:19 AM 60.8950 1.7810 111° Southeast 509 586 35,000  Level FlightAware ADS-B
Sun 06:26:59 AM 60.8600 1.9620 112° Southeast 509 586 35,000  Level FlightAware ADS-B
Sun 06:27:45 AM 60.8200 2.1710 111° Southeast 513 590 35,000  Level FlightAware ADS-B
Sun 06:28:25 AM 60.7870 2.3410 112° Southeast 513 590 35,000  Level FlightAware ADS-B
Sun 06:29:07 AM 60.7510 2.5210 112° Southeast 511 588 35,000  Level FlightAware ADS-B
Sun 06:29:50 AM 60.7120 2.7200 112° Southeast 512 589 35,000  Level FlightAware ADS-B
Sun 06:30:25 AM 60.6780 2.8870 113° Southeast 513 590 35,000  Level FlightAware ADS-B
Sun 06:31:00 AM 60.6480 3.0360 112° Southeast 513 590 35,000  Level FlightAware ADS-B
Sun 06:31:50 AM 60.6020 3.2660 112° Southeast 512 589 35,000  Level FlightAware ADS-B
Sun 06:32:30 AM 60.5650 3.4420 113° Southeast 512 589 35,000  Level FlightAware ADS-B
Sun 06:33:10 AM 60.5300 3.6110 113° Southeast 511 588 35,000  Level FlightAware ADS-B
Sun 06:33:55 AM 60.4880 3.8120 113° Southeast 513 590 35,000  Level FlightAware ADS-B
Sun 06:34:35 AM 60.4520 3.9820 113° Southeast 514 592 35,000  Level FlightAware ADS-B
Sun 06:35:15 AM 60.4120 4.1680 113° Southeast 514 592 35,000  Level FlightAware ADS-B
Sun 06:35:52 AM 60.3770 4.3320 113° Southeast 514 592 35,000  Level FlightAware ADS-B
Sun 06:36:34 AM 60.3370 4.5180 113° Southeast 513 590 35,000  Level FlightAware ADS-B
Sun 06:37:12 AM 60.3010 4.6830 114° Southeast 513 590 35,000  Level FlightAware ADS-B
Sun 06:37:52 AM 60.2620 4.8590 114° Southeast 513 590 35,000  Level FlightAware ADS-B
Sun 06:38:36 AM 60.2200 5.0480 114° Southeast 515 593 35,000  Level FlightAware ADS-B
Sun 06:39:16 AM 60.1810 5.2210 114° Southeast 516 594 35,000  Level FlightAware ADS-B
Sun 06:39:52 AM 60.1460 5.3780 114° Southeast 516 594 35,000  Level FlightAware ADS-B
Sun 06:40:32 AM 60.1060 5.5530 115° Southeast 515 593 35,000  Level FlightAware ADS-B
Sun 06:41:10 AM 60.0700 5.7090 115° Southeast 515 593 35,000  Level FlightAware ADS-B
Sun 06:41:52 AM 60.0260 5.8990 115° Southeast 517 595 35,000  Level FlightAware ADS-B
Sun 06:42:32 AM 59.9860 6.0700 115° Southeast 518 596 35,000  Level FlightAware ADS-B
Sun 06:43:12 AM 59.9450 6.2440 115° Southeast 519 597 35,000  Level FlightAware ADS-B
Sun 06:43:56 AM 59.9000 6.4350 115° Southeast 520 598 35,000  Level FlightAware ADS-B
Sun 06:44:41 AM 59.8550 6.6240 115° Southeast 521 600 35,000  Level FlightAware ADS-B
Sun 06:45:22 AM 59.8110 6.8030 116° Southeast 521 600 35,000  Level FlightAware ADS-B
Sun 06:46:02 AM 59.7690 6.9760 116° Southeast 521 600 35,000  Level FlightAware ADS-B
Sun 06:46:38 AM 59.7310 7.1310 116° Southeast 520 598 35,000  Level FlightAware ADS-B
Sun 06:47:18 AM 59.6890 7.3010 116° Southeast 520 598 35,000  Level FlightAware ADS-B
Sun 06:48:04 AM 59.6400 7.4980 116° Southeast 519 597 35,000  Level FlightAware ADS-B
Sun 06:48:44 AM 59.5990 7.6640 116° Southeast 520 598 35,000  Level FlightAware ADS-B
Sun 06:49:28 AM 59.5510 7.8520 117° Southeast 520 598 35,000  Level FlightAware ADS-B
Sun 06:50:02 AM 59.5150 7.9940 117° Southeast 519 597 35,000  Level FlightAware ADS-B
Sun 06:50:52 AM 59.4610 8.2040 117° Southeast 519 597 35,000  Level FlightAware ADS-B
Sun 06:51:38 AM 59.4100 8.4000 117° Southeast 519 597 35,000  Level FlightAware ADS-B
Sun 06:52:16 AM 59.3690 8.5570 117° Southeast 519 597 35,000  Level FlightAware ADS-B
Sun 06:53:04 AM 59.3160 8.7580 117° Southeast 520 598 35,000  Level FlightAware ADS-B
Sun 06:53:36 AM 59.2820 8.8880 117° Southeast 520 598 35,000  Level FlightAware ADS-B
Sun 06:54:20 AM 59.2320 9.0730 118° Southeast 523 602 35,000  Level FlightAware ADS-B
Sun 06:55:04 AM 59.1820 9.2570 118° Southeast 525 604 35,000  Level FlightAware ADS-B
Sun 06:55:26 AM 59.1580 9.3460 118° Southeast 526 605 35,000  Level FlightAware ADS-B
Sun 06:56:10 AM 59.1070 9.5320 118° Southeast 530 610 35,000  Level FlightAware ADS-B
Sun 06:56:56 AM 59.0560 9.7200 118° Southeast 529 609 35,000  Level FlightAware ADS-B
Sun 06:57:36 AM 59.0080 9.8940 118° Southeast 529 609 35,000  Level FlightAware ADS-B
Sun 06:58:16 AM 58.9630 10.0520 119° Southeast 528 608 35,000  Level FlightAware ADS-B
Sun 06:59:00 AM 58.9110 10.2390 118° Southeast 528 608 35,000  Level FlightAware ADS-B
Sun 06:59:40 AM 58.8570 10.3930 124° Southeast 528 608 35,000  Level FlightAware ADS-B
Sun 07:00:25 AM 58.7870 10.5450 132° Southeast 528 608 35,000  Level FlightAware ADS-B
Sun 07:01:03 AM 58.7150 10.6670 139° Southeast 528 608 35,000  Level FlightAware ADS-B
Sun 07:01:49 AM 58.6190 10.7900 146° Southeast 525 604 35,000  Level FlightAware ADS-B
Sun 07:02:29 AM 58.5410 10.8840 148° Southeast 524 603 35,000  Level FlightAware ADS-B
Sun 07:03:11 AM 58.4530 10.9880 148° Southeast 523 602 35,000  Level FlightAware ADS-B
Sun 07:03:53 AM 58.3700 11.0780 150° Southeast 522 601 35,000  Level FlightAware ADS-B
Sun 07:04:37 AM 58.2740 11.1780 151° Southeast 520 598 35,000  Level FlightAware ADS-B
Sun 07:05:11 AM 58.1980 11.2330 159° South 515 593 35,000  Level FlightAware ADS-B
Sun 07:05:51 AM 58.1080 11.2940 160° South 513 590 35,000  Level FlightAware ADS-B
Sun 07:06:29 AM 58.0220 11.3540 160° South 513 590 35,000  Level FlightAware ADS-B
Sun 07:07:15 AM 57.9210 11.4240 160° South 514 592 35,000  Level FlightAware ADS-B
Sun 07:08:00 AM 57.8200 11.4940 160° South 516 594 35,000  Level FlightAware ADS-B
Sun 07:08:40 AM 57.7290 11.5560 160° South 516 594 35,000 -500 Level FlightAware ADS-B
Sun 07:09:24 AM 57.6300 11.6230 160° South 518 596 34,300 -1,012 Descending FlightAware ADS-B
Sun 07:10:03 AM 57.5410 11.6830 160° South 521 600 33,600 -1,000 Descending FlightAware ADS-B
Sun 07:10:48 AM 57.4420 11.7500 160° South 523 602 32,900 -1,270 Descending FlightAware ADS-B
Sun 07:12:20 AM 57.2620 11.8700 160° South 526 605 30,700 -1,940 Descending FlightAware ADS-B
Sun 07:13:01 AM 57.1650 11.9340 160° South 519 597 28,600 -3,075 Descending FlightAware ADS-B
Sun 07:13:40 AM 57.0540 12.0070 160° South 502 578 26,600 -2,734 Descending FlightAware ADS-B
Sun 07:14:20 AM 56.9690 12.0630 160° South 487 560 25,000 -2,357 Descending FlightAware ADS-B
Sun 07:15:04 AM 56.8750 12.1240 160° South 474 545 23,300 -2,280 Descending FlightAware ADS-B
Sun 07:16:00 AM 56.7640 12.1960 160° South 459 528 21,200 -2,225 Descending FlightAware ADS-B
Sun 07:16:33 AM 56.6990 12.2380 160° South 450 518 20,000 -2,087 Descending FlightAware ADS-B
Sun 07:17:09 AM 56.6310 12.2810 161° South 442 509 18,800 -2,071 Descending FlightAware ADS-B
Sun 07:17:57 AM 56.5350 12.3430 160° South 430 495 17,100 -2,022 Descending FlightAware ADS-B
Sun 07:18:38 AM 56.4600 12.3900 161° South 421 484 15,800 -1,835 Descending FlightAware ADS-B
Sun 07:19:22 AM 56.3810 12.4400 161° South 412 474 14,500 -1,667 Descending FlightAware ADS-B
Sun 07:19:50 AM 56.3280 12.4650 165° South 408 470 13,800 -1,300 Descending FlightAware ADS-B
Sun 07:20:22 AM 56.2710 12.4510 188° South 405 466 13,200 -1,315 Descending FlightAware ADS-B
Sun 07:21:03 AM 56.1970 12.4310 189° South 387 445 12,200 -1,174 Descending FlightAware ADS-B
Sun 07:21:54 AM 56.1070 12.4060 189° South 389 448 11,400 -983 Descending FlightAware ADS-B
Sun 07:22:59 AM 55.9910 12.3740 189° South 377 434 10,300 -1,200 Descending FlightAware ADS-B
Sun 07:23:24 AM 55.9490 12.3630 188° South 374 430 9,600 -1,778 Descending FlightAware ADS-B
Sun 07:23:53 AM 55.8950 12.3480 189° South 376 433 8,700 -1,846 Descending FlightAware ADS-B
Sun 07:24:03 AM 55.8790 12.3440 188° South 372 428 8,400 -1,902 Descending FlightAware ADS-B
Sun 07:24:34 AM 55.8280 12.3300 189° South 360 414 7,400 -1,938 Descending FlightAware ADS-B
Sun 07:25:08 AM 55.7700 12.3140 189° South 357 411 6,300 -2,031 Descending FlightAware ADS-B
Sun 07:25:39 AM 55.7180 12.3080 184° South 357 411 5,200 -2,836 Descending FlightAware ADS-B
Sun 07:26:03 AM 55.6790 12.3180 172° South 342 394 3,700 -2,618 Descending FlightAware ADS-B
Sun 07:26:34 AM 55.6350 12.3320 170° South 298 343 2,800 -885 Descending FlightAware ADS-B
Sun 07:27:04 AM 55.5970 12.3450 169° South 250 288 2,800 -240 Level FlightAware ADS-B
Sun 07:27:24 AM 55.5760 12.3530 168° South 231 266 2,600 -1,067 Descending FlightAware ADS-B
Sun 07:27:49 AM 55.5490 12.3640 167° South 241 277 2,000 -1,050 Descending FlightAware ADS-B
Sun 07:28:04 AM 55.5340 12.3800 149° Southeast 227 261 1,900 -267 Descending FlightAware ADS-B
Sun 07:28:34 AM 55.5130 12.4180 134° Southeast 205 236 1,800 -136 Descending FlightAware ADS-B
Sun 07:28:48 AM 55.5070 12.4400 116° Southeast 209 241 1,800 -240 Level FlightAware ADS-B
Sun 07:29:49 AM 55.5300 12.5120 61° Northeast 164 189 1,500 -558 Descending FlightAware ADS-B
Sun 07:30:14 AM 55.5450 12.5320 37° Northeast 169 194 1,000 -1,080 Descending FlightAware ADS-B
Sun 07:30:39 AM 55.5600 12.5530 38° Northeast 153 176 600 -778 Descending FlightAware ADS-B
Sun 07:31:08 AM 55.5750 12.5770 42° Northeast 151 174 300 -667 Descending FlightAware ADS-B
Sun 07:31:24 AM 55.5830 12.5890 40° Northeast 152 175 100 -750 Descending FlightAware ADS-B

Login

Don't have an account? Register now (free) for customized features, flight alerts, and more!